Observations

BIA Manual Entry


Date Temp Humidity Rainfall Dew Point Wind Direction Wind Speed Wind Pressure Condition Visibility
2025-04-11 13:01:33 32 62 24 190 9.5 1008 Partly Cloudy (Day) 20KM
2025-04-11 12:04:35 31 69 24 170 7.6 1010 Partly Cloudy (Day) 20KM
2025-04-11 11:00:40 30 74 25 170 7.6 1011 Partly Cloudy (Day) 20KM
2025-04-11 10:03:10 29 75 0.00 24 150 3.8 1011 Cloudy 20 KM
2025-04-11 09:00:33 28 85 1 25 190 5.7 1011 Rain 10 KM
2025-04-11 07:58:55 26 91 0.01 24 140 3.8 1011 Rain 09 KM
2025-04-11 07:00:55 25 93 0.01 24 150 1.9 1010 Shower Day 10 KM
2025-04-11 05:59:52 25 94 0.01 24 300 11.4 1009 Thundershowers 10 KM
2025-04-11 04:03:39 26 93 0.0 25 210 7.6 1008 Night Thunderstorm 10 KM
2025-04-11 03:00:39 26 94 0.0 25 210 3.8 1008 Partly Cloudy (Night) 10 KM
2025-04-11 02:03:00 27 93 25 190 5.7 1009 Partly Cloudy (Night) 10 KM
2025-04-11 01:01:16 27 92 26 220 5.7 1010 Partly Cloudy (Night) 10 KM
2025-04-10 23:59:55 27 91 25 220 3.8 1010 Partly Cloudy (Night) 10 KM
2025-04-10 22:59:48 27 92 25 230 1.9 1010 Partly Cloudy (Night) 10 KM
2025-04-10 21:59:29 27 89 25 190 5.7 1010 Partly Cloudy (Night) 10 KM
2025-04-10 20:59:27 28 85 25 360 3.8 1009 Lightning 10KM
2025-04-10 20:01:25 28 83 25 010 3.8 1008 Lightning 10KM
2025-04-10 19:03:50 29 80 25 010 5.7 1008 Lightning 10KM
2025-04-10 18:02:04 29 80 25 330 11.4 1007 Heavy Showers 10KM
2025-04-10 17:00:26 30 75 0.00 25 320 15.2 1006 Partly Cloudy (Day) 15 km
2025-04-10 15:58:36 31 67 0.00 24 310 15.2 1007 Partly Cloudy (Day) 15 km
2025-04-10 15:01:32 31 70 0.00 25 320 17.1 1007 Partly Cloudy (Day) 15 km
2025-04-10 14:01:39 30 70 0.00 24 310 13.3 1008 Partly Cloudy (Day) 15 km
2025-04-10 12:57:54 31 71 25 300 15.2 1010 Distant showers 15 KM
2025-04-10 11:59:19 30 72 25 320 13.3 1010 Partly Cloudy (Day) 20 KM